UNEE/KEJ METAR and TAF weather

Enter ICAO airport designator
Station Type Date Time Source
UNEE METAR 2019/02/21 15:30 UTC NOAA

UNEE 211530Z 23010MPS 9000 BLSN NSC M05/M09 Q1026 R23/591030 NOSIG RMK QFE746


Station Type Date Time Source
UNEE Decoded METAR 2019/02/21 15:30 UTC NOAA

Kemerovo, Russia (UNEE) 55-19-48N 086-04-48E
Feb 21, 2019 - 10:30 AM EST / 2019.02.21 1530 UTC
Wind: from the SW (230 degrees) at 22 MPH (19 KT):0
Visibility: 5 mile(s):0
Weather: blowing snow
Temperature: 23 F (-5 C)
Windchill: 6 F (-14 C):1
Dew Point: 15 F (-9 C)
Relative Humidity: 73%
Pressure (altimeter): 30.30 in. Hg (1026 hPa)
ob: UNEE 211530Z 23010MPS 9000 BLSN NSC M05/M09 Q1026 R23/591030 NOSIG RMK QFE746
cycle: 15

Station Type Date Time Source
UNEE TAF 2019/02/21 15:21 UTC NOAA

TAF UNEE 211400Z 2115/2215 23006G14MPS 5000 -SHSN BKN012CB
TEMPO 2115/2118 0700 +SHSN BKN002 BKN011CB
TEMPO 2118/2203 3100 -SHSN BKN011CB


Example: see airport list